Time;durP1;ratioP1;P1;durP2;ratioP2;P2;SDS_P1;SDS_P2;PMS_P1;PMS_P2;Temp;Humidity;BMP_temperature;BMP_pressure;BME280_temperature;BME280_humidity;BME280_pressure;Samples;Min_cycle;Max_cycle;Signal;HPM_P1;HPM_P2
2022/12/06 00:01:18;;;;;;;7.60;3.10;;;5.50;99.90;;;;;;5077637;28;20540;-66
2022/12/06 00:03:46;;;;;;;12.48;3.50;;;5.60;99.90;;;;;;5082090;28;20040;-66
2022/12/06 00:06:17;;;;;;;5.78;3.08;;;5.50;99.90;;;;;;5080821;28;20067;-67
2022/12/06 00:08:44;;;;;;;7.03;3.00;;;5.50;99.90;;;;;;5074353;28;20060;-66
2022/12/06 00:11:13;;;;;;;11.35;3.20;;;5.60;99.90;;;;;;5076238;28;20207;-66
2022/12/06 00:13:40;;;;;;;7.72;3.33;;;5.40;99.90;;;;;;5075907;28;20047;-66
2022/12/06 00:16:08;;;;;;;5.68;2.75;;;5.50;99.90;;;;;;5078398;28;20036;-66
2022/12/06 00:18:36;;;;;;;8.80;2.80;;;5.50;99.90;;;;;;5077153;28;20035;-66
2022/12/06 00:21:17;;;;;;;11.27;2.80;;;5.40;99.90;;;;;;5061785;28;20537;-65
2022/12/06 00:23:49;;;;;;;13.45;2.55;;;5.30;99.90;;;;;;5080337;28;20063;-66
2022/12/06 00:26:17;;;;;;;7.43;2.50;;;5.30;99.90;;;;;;5086867;28;20036;-65
2022/12/06 00:28:44;;;;;;;9.63;2.88;;;5.30;99.90;;;;;;5088675;28;20434;-65
2022/12/06 00:31:14;;;;;;;9.07;3.10;;;5.20;99.90;;;;;;5067676;28;20085;-66
2022/12/06 00:33:40;;;;;;;9.88;2.65;;;5.30;99.90;;;;;;5080016;28;20049;-66
2022/12/06 00:36:13;;;;;;;5.05;2.28;;;5.30;99.90;;;;;;5076090;28;20089;-65
2022/12/06 00:38:39;;;;;;;7.65;2.58;;;5.30;99.90;;;;;;5077154;28;20043;-65
2022/12/06 00:41:09;;;;;;;6.43;2.47;;;5.20;99.90;;;;;;5076539;28;20048;-66
2022/12/06 00:43:36;;;;;;;6.70;2.35;;;5.20;99.90;;;;;;5078087;28;20071;-66
2022/12/06 00:46:03;;;;;;;6.95;2.05;;;5.20;99.90;;;;;;5078634;28;20073;-66
2022/12/06 00:48:29;;;;;;;7.50;2.40;;;5.20;99.90;;;;;;5079275;28;20186;-66
2022/12/06 00:50:55;;;;;;;8.25;2.80;;;5.40;99.90;;;;;;5077582;28;20044;-65
2022/12/06 00:53:21;;;;;;;10.82;2.40;;;5.40;99.90;;;;;;5076919;28;20163;-66
2022/12/06 00:55:47;;;;;;;9.93;2.60;;;5.30;99.90;;;;;;5076119;28;20499;-65
2022/12/06 00:58:13;;;;;;;6.20;2.08;;;5.30;99.90;;;;;;5074718;28;20048;-65
2022/12/06 01:00:39;;;;;;;4.13;1.52;;;5.30;99.90;;;;;;5075882;28;20044;-65
2022/12/06 01:03:05;;;;;;;5.00;2.05;;;5.30;99.90;;;;;;5081213;28;20039;-66
2022/12/06 01:05:31;;;;;;;6.10;3.00;;;5.40;99.90;;;;;;5083686;28;20093;-66
2022/12/06 01:07:57;;;;;;;12.18;2.47;;;5.30;99.90;;;;;;5079608;28;20044;-66
2022/12/06 01:10:23;;;;;;;4.82;2.40;;;5.30;99.90;;;;;;5079904;28;20043;-66
2022/12/06 01:12:49;;;;;;;7.43;2.55;;;5.30;99.90;;;;;;5083323;28;20046;-66
2022/12/06 01:15:14;;;;;;;5.97;2.45;;;5.30;99.90;;;;;;5077436;28;20056;-66
2022/12/06 01:17:40;;;;;;;4.93;2.63;;;5.30;99.90;;;;;;5082014;28;20075;-66
2022/12/06 01:20:08;;;;;;;5.65;2.60;;;5.30;99.90;;;;;;5083006;28;20544;-67
2022/12/06 01:22:34;;;;;;;8.48;2.92;;;5.30;99.90;;;;;;5064175;28;20765;-66
2022/12/06 01:25:00;;;;;;;6.80;3.08;;;5.30;99.90;;;;;;5084685;28;20051;-66
2022/12/06 01:27:25;;;;;;;7.78;2.58;;;5.20;99.90;;;;;;5082548;28;20101;-66
2022/12/06 01:29:51;;;;;;;6.00;2.42;;;5.30;99.90;;;;;;5083156;28;20140;-66
2022/12/06 01:32:17;;;;;;;6.85;2.35;;;5.30;99.90;;;;;;5064625;28;20040;-66
2022/12/06 01:34:44;;;;;;;6.68;2.75;;;5.20;99.90;;;;;;5082826;28;20570;-66
2022/12/06 01:37:10;;;;;;;7.40;2.47;;;5.30;99.90;;;;;;5081730;28;20415;-66
2022/12/06 01:39:35;;;;;;;7.03;3.10;;;5.30;99.90;;;;;;5085432;28;20212;-66
2022/12/06 01:42:01;;;;;;;7.15;2.60;;;5.20;99.90;;;;;;5084556;28;20132;-65
2022/12/06 01:44:49;;;;;;;7.78;2.90;;;5.20;99.90;;;;;;5080749;28;20044;-66
2022/12/06 01:47:20;;;;;;;7.80;2.90;;;5.30;99.90;;;;;;5080604;28;20607;-66
2022/12/06 01:49:50;;;;;;;8.15;3.00;;;5.30;99.90;;;;;;5085542;28;20124;-65
2022/12/06 01:52:17;;;;;;;7.05;3.20;;;5.20;99.90;;;;;;5082602;28;20074;-66
2022/12/06 01:54:44;;;;;;;9.52;2.97;;;5.20;99.90;;;;;;5081786;28;20036;-66
2022/12/06 01:57:12;;;;;;;7.13;2.88;;;5.40;99.90;;;;;;5076221;28;20078;-66
2022/12/06 01:59:39;;;;;;;6.40;2.60;;;5.40;99.90;;;;;;5077845;28;20553;-66
2022/12/06 02:02:04;;;;;;;7.78;3.35;;;5.30;99.90;;;;;;5078102;28;20103;-66
2022/12/06 02:04:30;;;;;;;7.43;2.83;;;5.40;99.90;;;;;;5060886;28;20048;-66
2022/12/06 02:06:58;;;;;;;8.85;3.10;;;5.30;99.90;;;;;;5083273;28;20663;-66
2022/12/06 02:09:28;;;;;;;5.95;3.00;;;5.40;99.90;;;;;;5076177;28;20046;-66
2022/12/06 02:11:53;;;;;;;4.68;3.10;;;5.40;99.90;;;;;;5074689;28;20436;-66
2022/12/06 02:14:23;;;;;;;6.00;3.20;;;5.30;99.90;;;;;;5071435;28;20052;-66
2022/12/06 02:17:14;;;;;;;5.53;3.25;;;5.30;99.90;;;;;;5080595;28;20111;-66
2022/12/06 02:19:59;;;;;;;9.00;3.00;;;5.20;99.90;;;;;;5080239;28;20040;-66
2022/12/06 02:22:39;;;;;;;6.45;3.28;;;5.20;99.90;;;;;;5078088;28;20367;-66
2022/12/06 02:25:44;;;;;;;8.18;3.70;;;5.20;99.90;;;;;;5081926;28;20047;-66
2022/12/06 02:28:47;;;;;;;6.80;2.95;;;5.20;99.90;;;;;;5075626;28;20090;-65
2022/12/06 02:31:38;;;;;;;12.63;3.72;;;5.10;99.90;;;;;;5080291;28;20517;-66
2022/12/06 02:34:09;;;;;;;6.28;3.03;;;5.20;99.90;;;;;;5064230;28;20065;-66
2022/12/06 02:36:51;;;;;;;11.07;3.65;;;5.20;99.90;;;;;;5081697;28;20096;-66
2022/12/06 02:39:26;;;;;;;9.52;3.15;;;5.10;99.90;;;;;;5082412;28;20150;-65
2022/12/06 02:42:12;;;;;;;6.03;2.60;;;5.10;99.90;;;;;;5076361;28;20040;-66
2022/12/06 02:44:47;;;;;;;6.93;3.00;;;5.20;99.90;;;;;;5076101;28;20048;-65
2022/12/06 02:47:15;;;;;;;6.63;2.72;;;5.10;99.90;;;;;;5078596;28;20044;-65
2022/12/06 02:49:45;;;;;;;5.72;2.90;;;5.20;99.90;;;;;;5080483;28;20044;-66
2022/12/06 02:52:12;;;;;;;7.78;3.33;;;5.20;99.90;;;;;;5073937;28;20381;-66
2022/12/06 02:54:40;;;;;;;4.13;2.72;;;5.20;99.90;;;;;;5078948;28;20097;-65
2022/12/06 02:57:06;;;;;;;10.25;3.08;;;5.10;99.90;;;;;;5079183;28;20036;-66
2022/12/06 02:59:32;;;;;;;6.57;3.40;;;5.20;99.90;;;;;;5082371;28;20054;-65
2022/12/06 03:02:01;;;;;;;10.95;3.13;;;5.10;99.90;;;;;;5081372;28;20048;-66
2022/12/06 03:05:11;;;;;;;9.00;3.60;;;5.10;99.90;;;;;;5078725;28;20132;-66
2022/12/06 03:07:41;;;;;;;6.38;3.42;;;5.10;99.90;;;;;;5074592;28;20439;-66
2022/12/06 03:10:22;;;;;;;9.27;3.47;;;5.10;99.90;;;;;;5077084;28;20048;-66
2022/12/06 03:12:58;;;;;;;6.88;3.20;;;5.20;99.90;;;;;;5084833;28;20040;-66
2022/12/06 03:15:39;;;;;;;6.63;2.85;;;5.00;99.90;;;;;;5078293;28;20048;-66
2022/12/06 03:18:36;;;;;;;9.98;3.20;;;5.00;99.90;;;;;;5066231;28;20052;-65
2022/12/06 03:21:17;;;;;;;6.25;2.95;;;5.00;99.90;;;;;;5081180;28;20050;-67
2022/12/06 03:23:46;;;;;;;6.85;3.15;;;5.00;99.90;;;;;;5083630;28;20048;-66
2022/12/06 03:26:17;;;;;;;11.48;3.10;;;5.10;99.90;;;;;;5079023;28;20046;-66
2022/12/06 03:28:45;;;;;;;8.18;3.22;;;5.00;99.90;;;;;;5083110;28;20116;-66
2022/12/06 03:31:13;;;;;;;11.23;3.50;;;4.90;99.90;;;;;;5081045;28;20072;-66
2022/12/06 03:33:48;;;;;;;12.20;3.72;;;4.90;99.90;;;;;;5082830;28;20039;-66
2022/12/06 03:36:15;;;;;;;11.13;3.20;;;5.10;99.90;;;;;;5080296;28;20052;-65
2022/12/06 03:39:00;;;;;;;6.28;2.53;;;5.10;99.90;;;;;;5081817;28;20040;-64
2022/12/06 03:41:36;;;;;;;8.35;2.53;;;5.10;99.90;;;;;;5077090;28;20036;-65
2022/12/06 03:44:01;;;;;;;6.50;3.08;;;5.00;99.90;;;;;;5078128;28;20040;-65
2022/12/06 03:46:32;;;;;;;7.50;2.22;;;5.00;99.90;;;;;;5057217;28;20044;-65
2022/12/06 03:49:03;;;;;;;7.20;2.10;;;5.00;99.90;;;;;;5064310;28;20046;-65
2022/12/06 03:51:32;;;;;;;4.60;1.75;;;5.10;99.90;;;;;;5079239;28;20140;-65
2022/12/06 03:54:00;;;;;;;7.50;1.70;;;5.10;99.90;;;;;;5076208;28;20047;-65
2022/12/06 03:56:26;;;;;;;5.95;1.70;;;5.10;99.90;;;;;;5075060;28;20032;-65
2022/12/06 03:58:52;;;;;;;4.72;1.55;;;5.10;99.90;;;;;;5082135;28;20036;-65
2022/12/06 04:01:18;;;;;;;3.95;1.38;;;5.10;99.90;;;;;;5055327;28;20513;-66
2022/12/06 04:03:43;;;;;;;5.68;1.52;;;5.00;99.90;;;;;;5063596;28;20058;-66
2022/12/06 04:06:10;;;;;;;4.15;1.50;;;5.00;99.90;;;;;;5076031;28;20190;-66
2022/12/06 04:08:37;;;;;;;7.90;1.73;;;5.00;99.90;;;;;;5081169;28;20182;-66
2022/12/06 04:11:03;;;;;;;4.30;1.20;;;5.00;99.90;;;;;;5077518;28;20048;-66
2022/12/06 04:13:28;;;;;;;5.60;1.30;;;5.10;99.90;;;;;;5060418;28;20116;-66
2022/12/06 04:15:56;;;;;;;2.53;1.10;;;5.20;99.90;;;;;;5075924;28;20499;-65
2022/12/06 04:18:23;;;;;;;3.63;1.40;;;5.20;99.90;;;;;;5053320;28;20048;-65
2022/12/06 04:23:38;;;;;;;1.92;1.13;;;5.10;99.90;;;;;;5058168;28;20048;-66
2022/12/06 04:26:06;;;;;;;3.95;1.42;;;5.10;99.90;;;;;;5057783;28;20112;-66
2022/12/06 04:39:31;;;;;;;3.38;1.30;;;5.00;99.90;;;;;;5078059;28;20044;-66
2022/12/06 04:44:41;;;;;;;2.78;1.15;;;5.00;99.90;;;;;;5082769;28;20044;-66
2022/12/06 04:47:08;;;;;;;7.18;1.60;;;5.00;99.90;;;;;;5082865;28;20040;-66
2022/12/06 04:49:34;;;;;;;5.38;1.40;;;4.90;99.90;;;;;;5064357;28;20047;-66
2022/12/06 04:52:00;;;;;;;3.38;1.38;;;5.00;99.90;;;;;;5078976;28;20036;-65
2022/12/06 04:54:26;;;;;;;5.03;1.35;;;5.00;99.90;;;;;;5081267;28;20048;-66
2022/12/06 04:56:52;;;;;;;4.85;1.23;;;5.00;99.90;;;;;;5079603;28;20161;-65
2022/12/06 04:59:18;;;;;;;3.20;1.40;;;5.00;99.90;;;;;;5080289;28;20126;-65
2022/12/06 05:01:44;;;;;;;3.85;1.15;;;5.10;99.90;;;;;;5080423;28;20380;-65
2022/12/06 05:04:09;;;;;;;4.90;1.42;;;5.10;99.90;;;;;;5080318;28;20047;-65
2022/12/06 05:06:35;;;;;;;3.97;1.38;;;5.00;99.90;;;;;;5083113;28;20488;-65
2022/12/06 05:09:02;;;;;;;6.03;1.63;;;5.10;99.90;;;;;;5059150;28;20048;-66
2022/12/06 05:11:27;;;;;;;5.13;1.40;;;5.00;99.90;;;;;;5058948;28;20253;-66
2022/12/06 05:13:53;;;;;;;7.05;1.45;;;5.00;99.90;;;;;;5058690;28;20072;-66
2022/12/06 05:16:18;;;;;;;6.90;1.70;;;5.00;99.90;;;;;;5080064;28;20048;-65
2022/12/06 05:18:44;;;;;;;7.38;1.52;;;5.00;99.90;;;;;;5077317;28;20036;-66
2022/12/06 05:21:14;;;;;;;5.53;1.77;;;4.90;99.90;;;;;;5060967;28;20054;-66
2022/12/06 05:23:40;;;;;;;3.97;1.20;;;4.90;99.90;;;;;;5057484;28;20049;-66
2022/12/06 05:26:12;;;;;;;3.17;1.40;;;4.80;99.90;;;;;;5077425;28;20036;-66
2022/12/06 05:28:38;;;;;;;3.58;1.05;;;4.90;99.90;;;;;;5079383;28;20039;-66
2022/12/06 05:31:04;;;;;;;4.63;1.40;;;4.80;99.90;;;;;;5074109;28;20046;-66
2022/12/06 05:33:29;;;;;;;5.50;1.33;;;4.80;99.90;;;;;;5079371;28;20043;-66
2022/12/06 05:35:55;;;;;;;3.72;1.30;;;4.70;99.90;;;;;;5080514;28;20058;-65
2022/12/06 05:38:21;;;;;;;7.07;1.50;;;4.60;99.90;;;;;;5080142;28;20044;-65
2022/12/06 05:40:47;;;;;;;4.20;1.50;;;4.50;99.90;;;;;;5078824;28;20124;-66
2022/12/06 05:43:13;;;;;;;4.47;1.20;;;4.40;99.90;;;;;;5081016;28;20048;-65
2022/12/06 05:45:39;;;;;;;3.30;1.42;;;4.40;99.90;;;;;;5066527;28;20512;-65
2022/12/06 05:48:05;;;;;;;8.70;3.63;;;4.30;99.90;;;;;;5080706;28;20067;-65
2022/12/06 05:50:31;;;;;;;3.17;1.48;;;4.30;99.90;;;;;;5079466;28;20044;-66
2022/12/06 05:52:59;;;;;;;7.43;1.52;;;4.30;99.90;;;;;;5081506;28;20044;-65
2022/12/06 05:55:25;;;;;;;3.63;1.35;;;4.10;99.90;;;;;;5077009;28;20383;-65
2022/12/06 05:57:51;;;;;;;6.53;1.40;;;4.10;99.90;;;;;;5081017;28;20097;-65
2022/12/06 06:00:18;;;;;;;5.20;1.50;;;4.00;99.90;;;;;;5078498;28;20117;-65
2022/12/06 06:02:44;;;;;;;7.10;1.60;;;3.90;99.90;;;;;;5081611;28;20197;-65
2022/12/06 06:05:11;;;;;;;7.07;2.35;;;3.90;99.90;;;;;;5078911;28;20093;-65
2022/12/06 06:07:37;;;;;;;6.60;1.92;;;3.90;99.90;;;;;;5058849;28;20036;-65
2022/12/06 06:10:04;;;;;;;5.63;1.95;;;3.90;99.90;;;;;;5057680;28;20055;-66
2022/12/06 06:12:30;;;;;;;5.03;1.75;;;3.70;99.90;;;;;;5055220;28;20099;-66
2022/12/06 06:14:55;;;;;;;7.10;2.20;;;3.70;99.90;;;;;;5079037;28;20143;-64
2022/12/06 06:17:23;;;;;;;8.20;2.85;;;3.70;99.90;;;;;;5077673;28;20188;-66
2022/12/06 06:19:49;;;;;;;6.28;2.55;;;3.60;99.90;;;;;;5078991;28;20035;-65
2022/12/06 06:22:14;;;;;;;5.50;2.15;;;3.70;99.90;;;;;;5077974;28;20070;-65
2022/12/06 06:24:41;;;;;;;4.97;2.20;;;3.50;99.90;;;;;;5081902;28;20102;-65
2022/12/06 06:27:07;;;;;;;7.70;2.38;;;3.50;99.90;;;;;;5075568;28;20052;-65
2022/12/06 06:29:34;;;;;;;5.60;2.20;;;3.40;99.90;;;;;;5080322;28;20139;-65
2022/12/06 06:32:01;;;;;;;6.90;2.40;;;3.40;99.90;;;;;;5090505;28;20032;-65
2022/12/06 06:34:28;;;;;;;6.38;2.00;;;3.30;99.90;;;;;;5072511;28;20576;-64
2022/12/06 06:36:54;;;;;;;7.28;2.67;;;3.30;99.90;;;;;;5069306;28;20055;-65
2022/12/06 06:39:19;;;;;;;7.25;2.25;;;3.40;99.90;;;;;;5079061;28;20439;-64
2022/12/06 06:41:45;;;;;;;5.38;2.30;;;3.30;99.90;;;;;;5077883;28;20499;-65
2022/12/06 06:44:11;;;;;;;6.85;2.53;;;3.40;99.90;;;;;;5061444;28;20502;-65
2022/12/06 06:46:37;;;;;;;7.03;2.50;;;3.30;99.90;;;;;;5075120;28;20036;-64
2022/12/06 06:49:03;;;;;;;8.57;2.58;;;3.30;99.90;;;;;;5080974;28;20040;-65
2022/12/06 06:51:30;;;;;;;8.90;2.28;;;3.30;99.90;;;;;;5075993;28;20050;-65
2022/12/06 06:53:56;;;;;;;12.00;3.17;;;3.30;99.90;;;;;;5055347;28;20415;-65
2022/12/06 06:56:22;;;;;;;9.65;2.85;;;3.30;99.90;;;;;;5076180;28;20047;-66
2022/12/06 06:58:48;;;;;;;10.55;2.13;;;3.40;99.90;;;;;;5076861;28;20054;-64
2022/12/06 07:01:18;;;;;;;9.70;2.60;;;3.30;99.90;;;;;;5056395;28;20067;-66
2022/12/06 07:03:44;;;;;;;5.80;2.22;;;3.30;99.90;;;;;;5078260;28;20065;-65
2022/12/06 07:06:10;;;;;;;11.63;3.10;;;3.30;99.90;;;;;;5061691;28;20115;-65
2022/12/06 07:08:37;;;;;;;9.75;2.95;;;3.40;99.90;;;;;;5074758;28;20131;-65
2022/12/06 07:11:03;;;;;;;12.50;2.80;;;3.40;99.90;;;;;;5076801;28;20118;-65
2022/12/06 07:13:29;;;;;;;9.55;2.47;;;3.40;99.90;;;;;;5056344;28;20107;-65
2022/12/06 07:15:57;;;;;;;5.00;2.20;;;3.30;99.90;;;;;;5072902;28;20106;-65
2022/12/06 07:18:22;;;;;;;8.13;3.00;;;3.40;99.90;;;;;;5069517;28;20181;-65
2022/12/06 07:20:56;;;;;;;7.05;2.35;;;3.40;99.90;;;;;;5077486;28;20143;-65
2022/12/06 07:23:23;;;;;;;6.70;2.50;;;3.40;99.90;;;;;;5070824;28;20054;-65
2022/12/06 07:26:01;;;;;;;6.93;2.10;;;3.30;99.90;;;;;;5076611;28;20404;-64
2022/12/06 07:28:27;;;;;;;5.70;2.58;;;3.40;99.90;;;;;;5057845;28;20126;-65
2022/12/06 07:30:53;;;;;;;7.50;3.22;;;3.40;99.90;;;;;;5077824;28;20171;-64
2022/12/06 07:33:18;;;;;;;6.53;2.50;;;3.40;99.90;;;;;;5078428;28;20829;-65
2022/12/06 07:35:44;;;;;;;7.30;3.15;;;3.40;99.90;;;;;;5076925;28;20686;-65
2022/12/06 07:38:09;;;;;;;7.68;2.90;;;3.40;99.90;;;;;;5076395;28;20054;-65
2022/12/06 07:40:35;;;;;;;8.60;2.50;;;3.50;99.90;;;;;;5073129;28;20060;-65
2022/12/06 07:45:45;;;;;;;14.25;4.43;;;3.50;99.90;;;;;;5076285;28;20068;-65
2022/12/06 07:48:12;;;;;;;8.05;3.30;;;3.60;99.90;;;;;;5079135;28;20172;-65
2022/12/06 07:50:38;;;;;;;6.90;3.20;;;3.60;99.90;;;;;;5075008;28;20043;-65
2022/12/06 07:53:04;;;;;;;7.47;3.00;;;3.70;99.90;;;;;;5074277;28;20040;-65
2022/12/06 07:55:29;;;;;;;11.65;3.42;;;3.60;99.90;;;;;;5083192;28;20032;-64
2022/12/06 07:57:55;;;;;;;8.52;4.05;;;3.70;99.90;;;;;;5083901;28;20180;-64
2022/12/06 08:00:20;;;;;;;9.80;3.53;;;3.60;99.90;;;;;;5078974;28;20383;-65
2022/12/06 08:02:46;;;;;;;6.78;3.25;;;3.70;99.90;;;;;;5083458;28;20036;-65
2022/12/06 08:05:12;;;;;;;12.00;3.60;;;3.70;99.90;;;;;;5081010;28;20414;-65
2022/12/06 08:07:38;;;;;;;6.97;2.85;;;3.80;99.90;;;;;;5076608;28;20032;-65
2022/12/06 08:10:05;;;;;;;11.60;3.42;;;3.80;99.90;;;;;;5074130;28;20063;-65
2022/12/06 08:12:31;;;;;;;10.95;3.20;;;3.80;99.90;;;;;;5082546;28;20040;-66
2022/12/06 08:14:57;;;;;;;7.80;3.13;;;3.80;99.90;;;;;;5078207;28;20037;-65
2022/12/06 08:17:22;;;;;;;8.98;3.10;;;3.90;99.90;;;;;;5081845;28;20039;-65
2022/12/06 08:19:48;;;;;;;7.00;3.35;;;3.80;99.90;;;;;;5083496;28;20044;-64
2022/12/06 08:22:14;;;;;;;10.60;3.70;;;3.90;99.90;;;;;;5060136;28;20044;-65
2022/12/06 08:24:39;;;;;;;5.88;2.88;;;4.00;99.90;;;;;;5066042;28;20070;-65
2022/12/06 08:27:05;;;;;;;11.80;3.90;;;3.90;99.90;;;;;;5062388;28;20062;-66
2022/12/06 08:29:31;;;;;;;11.60;3.80;;;4.00;99.90;;;;;;5085789;28;20482;-65
2022/12/06 08:31:56;;;;;;;5.43;2.85;;;4.10;99.90;;;;;;5083958;28;20071;-65
2022/12/06 08:34:22;;;;;;;11.50;3.80;;;4.10;99.90;;;;;;5080579;28;20119;-65
2022/12/06 08:36:47;;;;;;;7.55;3.53;;;4.00;99.90;;;;;;5080565;28;20451;-65
2022/12/06 08:39:13;;;;;;;7.22;3.20;;;4.10;99.90;;;;;;5087903;28;20047;-66
2022/12/06 08:41:54;;;;;;;6.90;3.00;;;4.10;99.90;;;;;;5083752;28;20036;-66
2022/12/06 08:44:20;;;;;;;6.78;2.50;;;4.10;99.90;;;;;;5078343;28;20058;-66
2022/12/06 08:46:46;;;;;;;7.93;3.60;;;4.00;99.90;;;;;;5080057;28;20036;-65
2022/12/06 08:49:13;;;;;;;7.45;2.80;;;4.10;99.90;;;;;;5084475;28;20583;-65
2022/12/06 08:51:39;;;;;;;9.13;2.90;;;4.10;99.90;;;;;;5081478;28;20087;-65
2022/12/06 08:54:07;;;;;;;8.35;3.28;;;4.00;99.90;;;;;;5079944;28;20076;-65
2022/12/06 08:56:33;;;;;;;6.05;2.92;;;4.10;99.90;;;;;;5082655;28;20140;-65
2022/12/06 08:58:58;;;;;;;9.23;2.80;;;4.00;99.90;;;;;;5061637;28;20495;-66
2022/12/06 09:01:28;;;;;;;8.65;2.80;;;4.00;99.90;;;;;;5077767;28;20055;-66
2022/12/06 09:03:53;;;;;;;7.45;2.88;;;4.00;99.90;;;;;;5080659;28;20098;-65
2022/12/06 09:06:21;;;;;;;7.55;3.15;;;4.00;99.90;;;;;;5083658;28;20403;-66
2022/12/06 09:08:47;;;;;;;6.60;2.97;;;4.10;99.90;;;;;;5086275;28;20048;-65
2022/12/06 09:11:13;;;;;;;7.43;3.05;;;4.10;99.90;;;;;;5080637;28;20055;-65
2022/12/06 09:13:39;;;;;;;8.05;2.63;;;4.20;99.90;;;;;;5085820;28;20043;-65
2022/12/06 09:16:07;;;;;;;7.40;2.75;;;4.30;99.90;;;;;;5082921;28;20299;-65
2022/12/06 09:18:33;;;;;;;5.70;2.80;;;4.30;99.90;;;;;;5081244;28;20129;-66
2022/12/06 09:21:03;;;;;;;7.25;2.90;;;4.30;99.90;;;;;;5079762;28;20075;-65
2022/12/06 09:23:28;;;;;;;5.97;2.40;;;4.50;99.90;;;;;;5079285;28;20120;-65
2022/12/06 09:25:54;;;;;;;6.10;2.70;;;4.50;99.90;;;;;;5057484;28;20466;-65
2022/12/06 09:28:19;;;;;;;8.27;2.63;;;4.60;99.90;;;;;;5078660;28;20320;-65
2022/12/06 09:30:45;;;;;;;4.78;2.65;;;4.80;99.90;;;;;;5081940;28;20090;-65
2022/12/06 09:33:11;;;;;;;7.90;2.75;;;4.80;99.90;;;;;;5079298;28;20040;-65
2022/12/06 09:35:36;;;;;;;8.05;3.15;;;4.80;99.90;;;;;;5078447;28;20276;-65
2022/12/06 09:38:03;;;;;;;8.43;3.00;;;4.90;99.90;;;;;;5078898;28;20048;-65
2022/12/06 09:40:38;;;;;;;6.60;2.67;;;4.90;99.90;;;;;;5084931;28;20066;-66
2022/12/06 09:43:42;;;;;;;9.75;2.65;;;4.90;99.90;;;;;;5079851;28;20044;-65
2022/12/06 09:46:22;;;;;;;5.28;2.85;;;5.00;99.90;;;;;;5002149;28;20479;-65
2022/12/06 09:48:57;;;;;;;10.40;2.70;;;5.10;99.90;;;;;;5076102;28;20056;-65
2022/12/06 09:51:28;;;;;;;7.15;3.00;;;5.10;99.90;;;;;;5078081;28;20063;-75
2022/12/06 09:54:19;;;;;;;6.45;2.53;;;5.20;99.90;;;;;;5079243;28;20575;-77
2022/12/06 09:57:00;;;;;;;5.30;2.50;;;5.20;99.90;;;;;;5056207;28;20067;-77
2022/12/06 10:00:01;;;;;;;8.63;2.60;;;5.20;99.90;;;;;;5082216;28;20053;-76
2022/12/06 10:03:05;;;;;;;7.22;2.78;;;5.20;99.90;;;;;;5084691;28;20046;-77
2022/12/06 10:05:42;;;;;;;5.72;2.25;;;5.30;99.90;;;;;;5067470;28;20289;-74
2022/12/06 10:08:21;;;;;;;5.53;2.63;;;5.20;99.90;;;;;;5083515;28;20056;-77
2022/12/06 10:10:54;;;;;;;4.25;2.58;;;5.40;99.90;;;;;;5084476;28;20155;-78
2022/12/06 10:13:39;;;;;;;5.40;2.30;;;5.40;99.90;;;;;;5083166;28;20051;-77
2022/12/06 10:16:19;;;;;;;6.32;2.70;;;5.40;99.90;;;;;;5099232;28;20024;-77
2022/12/06 10:19:12;;;;;;;7.57;2.80;;;5.40;99.90;;;;;;5110119;28;20442;-77
2022/12/06 10:22:06;;;;;;;8.52;2.92;;;5.40;99.90;;;;;;5108062;28;20032;-77
2022/12/06 10:25:03;;;;;;;5.60;2.30;;;5.40;99.90;;;;;;5094299;28;20073;-77
2022/12/06 10:27:47;;;;;;;6.78;2.30;;;5.40;99.90;;;;;;5059526;28;20110;-77
2022/12/06 10:30:15;;;;;;;5.22;2.42;;;5.40;99.90;;;;;;5076100;28;20090;-78
2022/12/06 10:33:05;;;;;;;5.85;3.90;;;5.40;99.90;;;;;;5079989;28;20556;-77
2022/12/06 10:35:41;;;;;;;10.55;6.07;;;5.40;99.90;;;;;;5079407;28;20043;-76
2022/12/06 10:38:30;;;;;;;8.27;3.80;;;5.40;99.90;;;;;;5080388;28;20405;-76
2022/12/06 10:41:17;;;;;;;7.60;3.00;;;5.50;99.90;;;;;;5083281;28;20051;-77
2022/12/06 10:44:08;;;;;;;10.55;3.28;;;5.50;99.90;;;;;;5083617;28;20047;-78
2022/12/06 10:47:03;;;;;;;4.30;2.28;;;5.50;99.90;;;;;;5029752;28;20040;-77
2022/12/06 10:49:49;;;;;;;7.60;2.25;;;5.50;99.90;;;;;;5082356;28;20036;-77
2022/12/06 10:52:42;;;;;;;5.70;2.80;;;5.60;99.90;;;;;;5081733;28;20448;-77
2022/12/06 10:55:08;;;;;;;6.80;2.40;;;5.70;99.90;;;;;;5083496;28;20127;-77
2022/12/06 10:57:58;;;;;;;4.95;1.80;;;5.90;99.90;;;;;;5076075;28;20154;-77
2022/12/06 11:00:30;;;;;;;2.80;1.52;;;5.90;99.90;;;;;;5079814;28;20044;-77
2022/12/06 11:02:55;;;;;;;5.65;2.10;;;6.10;99.90;;;;;;5082559;28;20040;-77
2022/12/06 11:05:30;;;;;;;4.72;1.75;;;6.20;99.90;;;;;;5057181;28;20097;-77
2022/12/06 11:08:16;;;;;;;4.57;1.50;;;6.20;99.90;;;;;;5054797;28;20040;-77
2022/12/06 11:10:44;;;;;;;5.00;1.65;;;6.30;99.90;;;;;;5080292;28;20587;-77
2022/12/06 11:13:38;;;;;;;8.88;1.85;;;6.20;99.90;;;;;;5081005;28;20051;-77
2022/12/06 11:16:10;;;;;;;;;;;6.30;99.90;;;;;;5081537;28;22007;-76
2022/12/06 11:18:37;;;;;;;3.25;1.58;;;6.30;99.90;;;;;;5081717;28;20369;-78
2022/12/06 11:21:02;;;;;;;6.28;1.40;;;6.40;99.90;;;;;;5085149;28;20036;-77
2022/12/06 11:23:41;;;;;;;4.70;1.42;;;6.40;99.90;;;;;;5081267;28;20048;-77
2022/12/06 11:26:42;;;;;;;3.60;1.40;;;6.40;99.90;;;;;;5082120;28;20222;-77
2022/12/06 11:29:13;;;;;;;4.47;1.27;;;6.50;99.90;;;;;;5081796;28;20059;-77
2022/12/06 11:31:49;;;;;;;5.85;1.40;;;6.50;99.90;;;;;;5083328;28;20040;-77
2022/12/06 11:34:19;;;;;;;4.38;1.63;;;6.50;99.90;;;;;;5081497;28;20048;-77
2022/12/06 11:36:48;;;;;;;6.45;1.25;;;6.50;99.90;;;;;;5083315;28;20132;-77
2022/12/06 11:39:15;;;;;;;3.97;1.33;;;6.60;99.90;;;;;;5081966;28;20411;-76
2022/12/06 11:41:42;;;;;;;8.35;1.55;;;6.60;99.90;;;;;;5082930;28;20111;-77
2022/12/06 11:44:17;;;;;;;5.32;1.40;;;6.60;99.90;;;;;;5078476;28;20070;-76
2022/12/06 11:46:43;;;;;;;2.97;1.00;;;6.60;99.90;;;;;;5081034;28;20052;-76
2022/12/06 11:49:35;;;;;;;7.40;1.05;;;6.60;99.90;;;;;;5080319;28;20246;-77
2022/12/06 11:52:39;;;;;;;6.15;1.20;;;6.60;99.90;;;;;;5080686;28;20103;-78
2022/12/06 11:55:17;;;;;;;4.78;0.82;;;6.70;99.90;;;;;;5073549;28;20057;-77
2022/12/06 11:58:11;;;;;;;6.55;1.20;;;6.70;99.90;;;;;;5080633;28;20093;-78
2022/12/06 12:00:53;;;;;;;2.92;1.05;;;6.70;99.90;;;;;;5079587;28;20345;-77
2022/12/06 12:03:31;;;;;;;3.45;1.00;;;6.70;99.90;;;;;;5079706;28;20047;-77
2022/12/06 12:06:19;;;;;;;4.20;1.20;;;6.80;99.90;;;;;;5078666;28;20032;-75
2022/12/06 12:09:04;;;;;;;8.50;1.70;;;6.70;99.90;;;;;;5078606;28;20059;-76
2022/12/06 12:11:38;;;;;;;2.67;1.00;;;6.60;99.90;;;;;;5082249;28;20423;-76
2022/12/06 12:14:14;;;;;;;4.70;1.10;;;6.60;99.90;;;;;;5077858;28;20102;-76
2022/12/06 12:16:47;;;;;;;5.43;1.17;;;6.60;99.90;;;;;;5078085;28;20055;-78
2022/12/06 12:19:37;;;;;;;2.83;1.00;;;6.70;99.90;;;;;;5081588;28;20372;-76
2022/12/06 12:22:25;;;;;;;6.78;1.02;;;6.60;99.90;;;;;;5078431;28;20130;-78
2022/12/06 12:24:53;;;;;;;7.88;1.35;;;6.70;99.90;;;;;;5079885;28;20051;-78
2022/12/06 12:27:44;;;;;;;2.53;0.90;;;6.70;99.90;;;;;;5075219;28;20059;-78
2022/12/06 12:30:31;;;;;;;4.15;1.10;;;6.80;99.90;;;;;;5082844;28;20131;-78
2022/12/06 12:33:06;;;;;;;4.38;1.13;;;6.80;99.90;;;;;;5079093;28;20037;-78
2022/12/06 12:35:37;;;;;;;6.38;1.02;;;6.70;99.90;;;;;;5078260;28;20538;-78
2022/12/06 12:38:08;;;;;;;4.40;0.93;;;6.70;99.90;;;;;;5081949;28;20044;-77
2022/12/06 12:40:48;;;;;;;2.80;1.10;;;6.80;99.90;;;;;;5076008;28;20123;-77
2022/12/06 12:43:24;;;;;;;3.10;1.10;;;6.90;99.90;;;;;;5056195;28;20544;-77
2022/12/06 12:46:08;;;;;;;3.65;1.38;;;6.90;99.90;;;;;;5081607;28;20032;-77
2022/12/06 12:48:36;;;;;;;4.38;1.05;;;6.90;99.90;;;;;;5081268;28;20098;-77
2022/12/06 12:51:22;;;;;;;2.85;0.98;;;6.90;99.90;;;;;;5061887;28;20040;-75
2022/12/06 12:54:00;;;;;;;6.53;2.05;;;6.90;99.90;;;;;;5080739;28;20044;-76
2022/12/06 12:56:27;;;;;;;3.42;1.05;;;6.90;99.90;;;;;;5080741;28;20175;-77
2022/12/06 12:58:55;;;;;;;6.50;1.00;;;6.80;99.90;;;;;;5083134;28;20039;-77
2022/12/06 13:01:23;;;;;;;2.85;1.13;;;6.90;99.90;;;;;;5087306;28;20257;-77
2022/12/06 13:03:55;;;;;;;3.33;1.00;;;6.80;99.90;;;;;;5082571;28;20079;-77
2022/12/06 13:06:49;;;;;;;7.05;1.30;;;6.80;99.90;;;;;;5057517;28;20036;-77
2022/12/06 13:09:21;;;;;;;4.03;1.05;;;6.80;99.90;;;;;;5080538;28;20048;-77
2022/12/06 13:11:52;;;;;;;4.30;1.10;;;6.80;99.90;;;;;;5086760;28;20053;-77
2022/12/06 13:14:21;;;;;;;3.78;1.23;;;6.80;99.90;;;;;;5082979;28;20032;-78
2022/12/06 13:16:51;;;;;;;3.92;1.10;;;6.90;99.90;;;;;;5081045;28;20048;-77
2022/12/06 13:19:19;;;;;;;4.75;1.30;;;6.90;99.90;;;;;;5079393;28;20074;-77
2022/12/06 13:21:45;;;;;;;3.00;1.00;;;6.90;99.90;;;;;;5081969;28;20040;-77
2022/12/06 13:24:11;;;;;;;3.25;1.33;;;6.90;99.90;;;;;;5083106;28;20148;-77
2022/12/06 13:26:56;;;;;;;3.45;0.93;;;6.90;99.90;;;;;;5079832;28;20193;-77
2022/12/06 13:29:36;;;;;;;11.30;1.80;;;6.80;99.90;;;;;;5083259;28;20040;-77
2022/12/06 13:32:13;;;;;;;5.68;1.05;;;6.90;99.90;;;;;;5083548;28;20048;-78
2022/12/06 13:34:47;;;;;;;1.95;0.90;;;6.80;99.90;;;;;;5074169;28;20036;-82
2022/12/06 13:37:33;;;;;;;4.90;1.58;;;6.90;99.90;;;;;;5079351;28;20046;-76